Skanee, Michigan
Current Conditions -  °F | °C
As of 9:53 PM on Tuesday 21 Oct 2014 (Local Time) from KCMX Reporting Station
Clear Clear  
Wind Chill: -2°   Ceiling: Unl
Heat Index:   Visibility: 10mi
Dew Point: -1°   Wind: 8mph
Humidity: 82%   Direction: 100°E
Pressure: 30.27"   Gusts: NA
Location:  46.87°N, 88.21°W
Report Text: KCMX 220153Z AUTO 10007KT 10SM CLR 02/M01 A3027 RMK AO2 SLP263 T00171011
Loading
Personal Weather Stations






























Interactive Weather Map
Tropical Storm Tracking
New forecast layout! Learn more

10-Day Weather Forecast

Advertisements
Track Severe Weather on mobile